Terminal Aerodrome Forecast
Issued by NWS

Home | Current Version | Previous Version | Text Only | Print | Product List | Glossary On
Versions: 1 2 3 4 5 6 7 8 9 10 11 12 13 14 15 16 17 18 19 20 21 22 23 24 25 26 27
000
FTUS44 KSJT 161120
TAFBBD
TAF
KBBD 161120Z 1612/1712 15010G15KT P6SM BKN020
     FM161500 17012G18KT P6SM SCT035
     FM170300 15010KT P6SM VCTS BKN020CB
     FM170900 13008KT P6SM BKN015=

USA.gov is the U.S. government's official web portal to all federal, state and local government web resources and services.